createdAt,value
2022-11-14T00:01:08.317Z,53.70
2022-11-14T00:03:35.012Z,57.60
2022-11-14T00:06:06.144Z,63.23
2022-11-14T00:08:32.880Z,60.30
2022-11-14T00:10:59.809Z,62.63
2022-11-14T00:13:26.458Z,59.00
2022-11-14T00:15:55.939Z,58.70
2022-11-14T00:18:23.537Z,61.37
2022-11-14T00:20:51.796Z,68.17
2022-11-14T00:23:22.490Z,64.90
2022-11-14T00:25:52.628Z,67.63
2022-11-14T00:28:19.254Z,61.90
2022-11-14T00:30:48.052Z,61.33
2022-11-14T00:33:19.766Z,77.17
2022-11-14T00:35:54.379Z,67.87
2022-11-14T00:38:21.448Z,72.43
2022-11-14T00:40:48.180Z,68.27
2022-11-14T00:43:14.917Z,74.20
2022-11-14T00:45:46.575Z,71.77
2022-11-14T00:48:13.943Z,76.43
2022-11-14T00:50:43.527Z,64.77
2022-11-14T00:53:10.554Z,70.60
2022-11-14T00:55:37.166Z,76.60
2022-11-14T00:58:04.348Z,73.20
2022-11-14T01:00:31.233Z,75.03
2022-11-14T01:03:01.366Z,69.80
2022-11-14T01:05:28.103Z,70.97
2022-11-14T01:07:54.755Z,70.50
2022-11-14T01:10:21.874Z,73.70
2022-11-14T01:12:48.638Z,66.27
2022-11-14T01:15:15.412Z,66.50
2022-11-14T01:17:42.034Z,77.33
2022-11-14T01:20:08.930Z,65.60
2022-11-14T01:22:38.365Z,62.20
2022-11-14T01:25:05.375Z,71.60
2022-11-14T01:27:32.038Z,74.37
2022-11-14T01:29:58.743Z,68.63
2022-11-14T01:32:27.161Z,69.40
2022-11-14T01:34:53.811Z,69.20
2022-11-14T01:37:20.462Z,69.20
2022-11-14T01:39:47.108Z,70.10
2022-11-14T01:42:13.724Z,66.13
2022-11-14T01:44:52.535Z,67.87
2022-11-14T01:47:22.845Z,67.23
2022-11-14T01:49:54.077Z,70.73
2022-11-14T01:52:32.297Z,66.40
2022-11-14T01:55:00.683Z,65.77
2022-11-14T01:57:34.060Z,75.03
2022-11-14T02:00:06.156Z,70.23
2022-11-14T02:02:32.784Z,73.20
2022-11-14T02:05:09.350Z,68.73
2022-11-14T02:07:39.216Z,69.60
2022-11-14T02:10:09.339Z,63.53
2022-11-14T02:12:36.450Z,69.87
2022-11-14T02:15:04.018Z,68.13
2022-11-14T02:17:31.265Z,66.37
2022-11-14T02:20:10.633Z,71.07
2022-11-14T02:22:39.318Z,63.10
2022-11-14T02:25:07.339Z,69.23
2022-11-14T02:27:35.047Z,62.50
2022-11-14T02:30:11.114Z,67.37
2022-11-14T02:33:08.883Z,67.07
2022-11-14T02:35:24.300Z,74.57
2022-11-14T02:37:50.954Z,64.73
2022-11-14T02:40:17.651Z,72.97
2022-11-14T02:42:44.452Z,71.97
2022-11-14T02:45:11.526Z,66.93
2022-11-14T02:47:38.160Z,62.90
2022-11-14T02:50:05.079Z,72.80
2022-11-14T02:52:31.689Z,65.43
2022-11-14T02:54:58.299Z,74.87
2022-11-14T02:57:24.932Z,81.83
2022-11-14T02:59:51.533Z,64.03
2022-11-14T03:02:18.191Z,76.03
2022-11-14T03:04:44.794Z,77.33
2022-11-14T03:07:11.630Z,70.43
2022-11-14T03:09:38.285Z,72.80
2022-11-14T03:12:04.996Z,68.27
2022-11-14T03:14:31.869Z,69.40
2022-11-14T03:16:58.480Z,70.67
2022-11-14T03:19:25.089Z,68.43
2022-11-14T03:21:51.694Z,71.77
2022-11-14T03:24:18.403Z,74.93
2022-11-14T03:26:45.018Z,67.67
2022-11-14T03:29:11.587Z,68.33
2022-11-14T03:31:38.216Z,70.27
2022-11-14T03:34:04.826Z,74.30
2022-11-14T03:36:31.519Z,72.80
2022-11-14T03:38:58.197Z,75.97
2022-11-14T03:41:24.783Z,68.37
2022-11-14T03:43:51.368Z,78.20
2022-11-14T03:46:17.952Z,72.37
2022-11-14T03:48:44.533Z,71.20
2022-11-14T03:51:11.124Z,72.97
2022-11-14T03:53:37.750Z,73.57
2022-11-14T03:56:04.601Z,80.13
2022-11-14T03:58:31.571Z,81.10
2022-11-14T04:00:58.593Z,73.37
2022-11-14T04:03:25.667Z,70.57
2022-11-14T04:05:52.308Z,81.47
2022-11-14T04:08:18.976Z,80.63
2022-11-14T04:10:49.290Z,73.13
2022-11-14T04:13:16.165Z,77.97
2022-11-14T04:15:43.236Z,76.27
2022-11-14T04:18:09.850Z,79.37
2022-11-14T04:20:36.639Z,71.30
2022-11-14T04:23:03.272Z,76.60
2022-11-14T04:25:29.921Z,82.57
2022-11-14T04:27:56.584Z,78.27
2022-11-14T04:30:23.263Z,85.93
2022-11-14T04:32:49.943Z,78.87
2022-11-14T04:35:16.640Z,72.87
2022-11-14T04:37:43.285Z,79.57
2022-11-14T04:40:10.178Z,89.00
2022-11-14T04:42:36.802Z,80.13
2022-11-14T04:45:03.599Z,77.30
2022-11-14T04:47:30.323Z,79.03
2022-11-14T04:49:56.942Z,84.30
2022-11-14T04:52:23.528Z,86.23
2022-11-14T04:54:50.227Z,96.50
2022-11-14T04:57:17.987Z,79.93
2022-11-14T04:59:44.691Z,86.43
2022-11-14T05:02:11.383Z,82.23
2022-11-14T05:04:38.160Z,87.70
2022-11-14T05:07:04.904Z,81.37
2022-11-14T05:09:31.832Z,90.07
2022-11-14T05:12:08.804Z,85.17
2022-11-14T05:14:55.458Z,85.73
2022-11-14T05:17:22.261Z,83.57
2022-11-14T05:19:48.964Z,92.40
2022-11-14T05:22:15.675Z,86.93
2022-11-14T05:24:42.293Z,85.80
2022-11-14T05:27:08.902Z,80.33
2022-11-14T05:29:35.506Z,82.73
2022-11-14T05:32:02.184Z,84.40
2022-11-14T05:34:28.809Z,84.47
2022-11-14T05:36:55.642Z,84.80
2022-11-14T05:39:22.253Z,85.83
2022-11-14T05:41:48.835Z,83.73
2022-11-14T05:44:15.604Z,76.47
2022-11-14T05:46:42.248Z,98.17
2022-11-14T05:49:08.850Z,70.17
2022-11-14T05:51:35.482Z,81.93
2022-11-14T05:54:02.210Z,80.63
2022-11-14T05:56:28.833Z,92.00
2022-11-14T05:58:55.539Z,80.17
2022-11-14T06:01:22.194Z,76.33
2022-11-14T06:03:49.026Z,90.17
2022-11-14T06:06:18.338Z,74.40
2022-11-14T06:08:44.997Z,79.37
2022-11-14T06:11:17.197Z,82.57
2022-11-14T06:13:43.862Z,89.23
2022-11-14T06:16:13.581Z,80.30
2022-11-14T06:18:40.325Z,87.57
2022-11-14T06:21:12.743Z,76.13
2022-11-14T06:23:39.436Z,79.93
2022-11-14T06:26:08.327Z,90.50
2022-11-14T06:28:34.890Z,84.47
2022-11-14T06:31:05.039Z,80.77
2022-11-14T06:33:36.076Z,78.67
2022-11-14T06:36:07.467Z,73.90
2022-11-14T06:38:36.322Z,65.10
2022-11-14T06:41:07.333Z,81.53
2022-11-14T06:43:35.064Z,77.87
2022-11-14T06:46:02.470Z,73.43
2022-11-14T06:48:29.546Z,74.00
2022-11-14T06:50:58.068Z,76.93
2022-11-14T06:53:24.969Z,77.80
2022-11-14T06:56:16.356Z,77.23
2022-11-14T06:58:48.809Z,77.30
2022-11-14T07:01:22.428Z,77.47
2022-11-14T07:03:49.662Z,73.10
2022-11-14T07:06:18.608Z,71.63
2022-11-14T07:08:45.421Z,69.30
2022-11-14T07:11:23.019Z,69.57
2022-11-14T07:13:55.466Z,73.07
2022-11-14T07:16:48.543Z,77.00
2022-11-14T07:19:15.298Z,73.83
2022-11-14T07:21:42.050Z,79.53
2022-11-14T07:24:08.675Z,74.50
2022-11-14T07:26:35.353Z,78.90
2022-11-14T07:29:02.949Z,80.40
2022-11-14T07:31:29.782Z,81.27
2022-11-14T07:33:56.414Z,72.50
2022-11-14T07:36:23.421Z,82.70
2022-11-14T07:38:50.039Z,78.43
2022-11-14T07:41:16.675Z,77.40
2022-11-14T07:43:43.280Z,75.20
2022-11-14T07:46:15.567Z,75.47
2022-11-14T07:48:42.230Z,71.17
2022-11-14T07:51:17.449Z,78.90
2022-11-14T07:53:44.417Z,73.33
2022-11-14T07:56:11.625Z,77.13
2022-11-14T07:58:39.428Z,76.93
2022-11-14T08:01:07.717Z,69.80
2022-11-14T08:03:35.034Z,74.50
2022-11-14T08:06:09.871Z,73.77
2022-11-14T08:08:36.739Z,74.13
2022-11-14T08:11:03.695Z,62.87
2022-11-14T08:13:32.802Z,71.67
2022-11-14T08:16:09.190Z,70.50
2022-11-14T08:18:38.774Z,69.63
2022-11-14T08:21:05.593Z,68.17
2022-11-14T08:23:32.387Z,78.37
2022-11-14T08:25:59.967Z,68.60
2022-11-14T08:28:26.877Z,68.80
2022-11-14T08:30:59.142Z,72.37
2022-11-14T08:33:25.751Z,63.83
2022-11-14T08:35:52.346Z,66.37
2022-11-14T08:38:18.995Z,70.67
2022-11-14T08:40:45.578Z,68.93
2022-11-14T08:43:12.147Z,57.33
2022-11-14T08:45:38.722Z,69.90
2022-11-14T08:48:05.894Z,63.03
2022-11-14T08:50:32.550Z,65.93
2022-11-14T08:52:59.135Z,65.43
2022-11-14T08:55:25.802Z,59.33
2022-11-14T08:57:53.361Z,62.50
2022-11-14T09:00:20.271Z,58.97
2022-11-14T09:02:47.183Z,62.37
2022-11-14T09:05:13.828Z,64.07
2022-11-14T09:07:40.435Z,62.57
2022-11-14T09:10:07.578Z,57.67
2022-11-14T09:12:34.276Z,63.17
2022-11-14T09:15:01.030Z,56.23
2022-11-14T09:17:27.829Z,55.23
2022-11-14T09:19:54.474Z,53.37
2022-11-14T09:22:21.249Z,57.27
2022-11-14T09:24:49.399Z,52.23
2022-11-14T09:27:16.025Z,51.07
2022-11-14T09:29:43.678Z,50.70
2022-11-14T09:32:10.357Z,59.13
2022-11-14T09:34:37.357Z,54.37
2022-11-14T09:37:03.972Z,57.70
2022-11-14T09:39:30.605Z,57.57
2022-11-14T09:42:06.035Z,56.50
2022-11-14T09:44:47.545Z,56.90
2022-11-14T09:47:20.723Z,52.97
2022-11-14T09:49:49.825Z,60.03
2022-11-14T09:52:39.643Z,57.50
2022-11-14T09:55:36.930Z,49.43
2022-11-14T09:58:04.429Z,60.63
2022-11-14T10:00:52.246Z,51.77
2022-11-14T10:03:24.761Z,55.00
2022-11-14T10:06:08.638Z,58.47
2022-11-14T10:08:41.160Z,51.03
2022-11-14T10:11:20.065Z,54.33
2022-11-14T10:14:03.382Z,57.23
2022-11-14T10:16:29.862Z,52.27
2022-11-14T10:19:50.670Z,56.43
2022-11-14T10:22:41.511Z,50.43
2022-11-14T10:25:25.902Z,50.47
2022-11-14T10:28:23.534Z,57.00
2022-11-14T10:30:59.017Z,52.10
2022-11-14T10:34:07.402Z,46.93
2022-11-14T10:36:50.613Z,46.77
2022-11-14T10:39:35.164Z,45.17
2022-11-14T10:42:08.614Z,50.03
2022-11-14T10:44:43.416Z,50.50
2022-11-14T10:47:15.220Z,41.38
2022-11-14T10:49:42.556Z,45.40
2022-11-14T10:52:18.656Z,44.15
2022-11-14T10:54:48.761Z,44.30
2022-11-14T10:57:21.150Z,47.75
2022-11-14T10:59:48.456Z,49.75
2022-11-14T11:02:15.446Z,45.60
2022-11-14T11:04:43.579Z,46.45
2022-11-14T11:07:10.246Z,53.45
2022-11-14T11:09:57.793Z,47.55
2022-11-14T11:12:40.774Z,52.08
2022-11-14T11:15:14.194Z,44.92
2022-11-14T11:18:21.912Z,42.63
2022-11-14T11:21:01.953Z,42.72
2022-11-14T11:23:28.846Z,45.67
2022-11-14T11:26:01.143Z,43.53
2022-11-14T11:28:30.331Z,44.67
2022-11-14T11:30:59.070Z,43.97
2022-11-14T11:33:28.327Z,45.83
2022-11-14T11:35:57.647Z,45.97
2022-11-14T11:38:29.930Z,44.83
2022-11-14T11:42:06.234Z,44.25
2022-11-14T11:44:21.089Z,42.95
2022-11-14T11:46:54.277Z,47.83
2022-11-14T11:49:48.669Z,44.03
2022-11-14T11:52:26.882Z,46.83
2022-11-14T11:55:08.650Z,39.53
2022-11-14T11:57:48.884Z,45.50
2022-11-14T12:00:18.275Z,42.22
2022-11-14T12:02:49.994Z,46.70
2022-11-14T12:05:23.757Z,44.83
2022-11-14T12:08:04.498Z,42.67
2022-11-14T12:10:34.345Z,46.35
2022-11-14T12:13:19.429Z,39.03
2022-11-14T12:15:55.850Z,42.90
2022-11-14T12:18:38.150Z,38.33
2022-11-14T12:21:15.403Z,36.45
2022-11-14T12:23:57.165Z,40.45
2022-11-14T12:27:24.519Z,41.88
2022-11-14T12:30:04.627Z,36.40
2022-11-14T12:32:57.481Z,44.33
2022-11-14T12:35:26.803Z,41.67
2022-11-14T12:37:56.067Z,39.78
2022-11-14T12:40:34.620Z,41.50
2022-11-14T12:43:02.631Z,42.60
2022-11-14T12:45:41.456Z,39.40
2022-11-14T12:48:14.249Z,37.10
2022-11-14T12:50:42.541Z,40.90
2022-11-14T12:53:38.177Z,35.08
2022-11-14T12:56:16.779Z,42.30
2022-11-14T12:59:06.418Z,40.63
2022-11-14T13:01:41.677Z,44.08
2022-11-14T13:04:26.739Z,34.97
2022-11-14T13:07:12.294Z,39.17
2022-11-14T13:09:58.162Z,40.72
2022-11-14T13:12:53.450Z,36.47
2022-11-14T13:15:50.009Z,37.33
2022-11-14T13:18:43.409Z,40.00
2022-11-14T13:21:43.788Z,38.00
2022-11-14T13:24:16.532Z,36.70
2022-11-14T13:26:48.540Z,38.88
2022-11-14T13:29:41.241Z,39.83
2022-11-14T13:32:11.983Z,35.88
2022-11-14T13:34:45.277Z,36.58
2022-11-14T13:37:40.128Z,43.03
2022-11-14T13:42:48.139Z,39.35
2022-11-14T13:45:41.470Z,38.35
2022-11-14T13:48:33.873Z,36.45
2022-11-14T13:51:21.786Z,34.33
2022-11-14T13:53:52.294Z,37.50
2022-11-14T13:56:32.579Z,37.15
2022-11-14T13:59:20.893Z,39.38
2022-11-14T14:01:50.608Z,41.67
2022-11-14T14:04:54.862Z,38.63
2022-11-14T14:07:44.931Z,49.50
2022-11-14T14:10:24.771Z,38.53
2022-11-14T14:13:19.850Z,38.83
2022-11-14T14:15:58.065Z,37.65
2022-11-14T14:18:54.179Z,39.17
2022-11-14T14:21:51.809Z,45.13
2022-11-14T14:24:47.203Z,46.53
2022-11-14T14:27:20.723Z,48.13
2022-11-14T14:30:01.439Z,39.25
2022-11-14T14:32:28.172Z,39.83
2022-11-14T14:34:58.485Z,38.17
2022-11-14T14:37:27.452Z,44.53
2022-11-14T14:40:01.162Z,37.83
2022-11-14T14:42:35.207Z,63.53
2022-11-14T14:45:03.181Z,65.35
2022-11-14T14:47:34.297Z,60.37
2022-11-14T14:50:03.502Z,47.33
2022-11-14T14:52:37.716Z,41.87
2022-11-14T14:55:06.733Z,46.42
2022-11-14T14:57:33.631Z,44.43
2022-11-14T15:00:00.863Z,40.20
2022-11-14T15:02:28.548Z,46.43
2022-11-14T15:04:56.161Z,47.53
2022-11-14T15:07:25.128Z,42.70
2022-11-14T15:09:57.331Z,43.30
2022-11-14T15:12:25.554Z,43.90
2022-11-14T15:14:53.731Z,43.03
2022-11-14T15:17:22.060Z,42.90
2022-11-14T15:19:50.674Z,41.33
2022-11-14T15:22:20.492Z,41.73
2022-11-14T15:25:11.696Z,40.30
2022-11-14T15:27:48.811Z,42.90
2022-11-14T15:30:27.599Z,38.77
2022-11-14T15:32:56.407Z,41.57
2022-11-14T15:35:25.480Z,46.87
2022-11-14T15:38:36.747Z,42.03
2022-11-14T15:41:18.442Z,42.23
2022-11-14T15:43:45.053Z,38.73
2022-11-14T15:46:28.919Z,44.30
2022-11-14T15:48:55.979Z,47.78
2022-11-14T15:51:40.007Z,49.70
2022-11-14T15:54:20.403Z,44.10
2022-11-14T15:56:48.510Z,39.93
2022-11-14T15:59:15.444Z,47.93
2022-11-14T16:01:43.588Z,41.20
2022-11-14T16:04:15.192Z,43.30
2022-11-14T16:06:41.900Z,48.37
2022-11-14T16:09:14.332Z,45.80
2022-11-14T16:11:40.921Z,47.17
2022-11-14T16:14:09.754Z,43.00
2022-11-14T16:16:36.592Z,43.57
2022-11-14T16:19:03.500Z,43.73
2022-11-14T16:21:30.193Z,44.33
2022-11-14T16:23:59.459Z,49.27
2022-11-14T16:26:26.360Z,53.13
2022-11-14T16:28:53.203Z,50.27
2022-11-14T16:31:20.739Z,47.87
2022-11-14T16:33:50.217Z,50.53
2022-11-14T16:36:20.785Z,58.53
2022-11-14T16:38:51.995Z,60.73
2022-11-14T16:41:19.661Z,57.07
2022-11-14T16:43:46.350Z,59.73
2022-11-14T16:46:12.946Z,54.13
2022-11-14T16:48:39.541Z,59.90
2022-11-14T16:51:20.219Z,63.20
2022-11-14T16:53:56.648Z,59.23
2022-11-14T16:56:23.604Z,54.73
2022-11-14T16:58:54.563Z,62.20
2022-11-14T17:01:21.825Z,56.10
2022-11-14T17:03:48.491Z,59.60
2022-11-14T17:06:15.144Z,57.43
2022-11-14T17:08:41.752Z,53.87
2022-11-14T17:11:09.886Z,53.80
2022-11-14T17:13:37.420Z,52.13
2022-11-14T17:16:04.894Z,51.77
2022-11-14T17:18:37.104Z,46.33
2022-11-14T17:21:09.501Z,51.03
2022-11-14T17:23:36.117Z,48.03
2022-11-14T17:26:03.669Z,60.17
2022-11-14T17:28:31.031Z,57.37
2022-11-14T17:30:58.114Z,49.87
2022-11-14T17:33:24.757Z,54.80
2022-11-14T17:35:51.426Z,48.40
2022-11-14T17:38:18.121Z,47.83
2022-11-14T17:40:44.786Z,48.53
2022-11-14T17:43:11.430Z,55.87
2022-11-14T17:45:41.106Z,49.47
2022-11-14T17:48:08.136Z,50.33
2022-11-14T17:50:38.613Z,50.80
2022-11-14T17:53:05.205Z,55.03
2022-11-14T17:55:31.903Z,58.10
2022-11-14T17:57:58.489Z,58.80
2022-11-14T18:00:25.158Z,49.57
2022-11-14T18:02:52.367Z,50.47
2022-11-14T18:05:19.103Z,58.07
2022-11-14T18:07:45.842Z,53.43
2022-11-14T18:10:12.506Z,55.87
2022-11-14T18:12:42.282Z,55.20
2022-11-14T18:15:09.216Z,60.03
2022-11-14T18:17:35.809Z,62.67
2022-11-14T18:20:02.736Z,61.97
2022-11-14T18:22:29.485Z,69.70
2022-11-14T18:24:56.129Z,72.13
2022-11-14T18:27:22.878Z,73.70
2022-11-14T18:29:49.470Z,66.67
2022-11-14T18:32:16.152Z,72.97
2022-11-14T18:34:42.728Z,61.03
2022-11-14T18:37:09.563Z,63.20
2022-11-14T18:39:36.206Z,84.17
2022-11-14T18:42:02.888Z,61.17
2022-11-14T18:44:29.867Z,87.17
2022-11-14T18:46:56.496Z,72.70
2022-11-14T18:49:23.153Z,69.23
2022-11-14T18:51:49.744Z,63.40
2022-11-14T18:54:17.151Z,61.97
2022-11-14T18:56:44.119Z,59.47
2022-11-14T18:59:10.801Z,63.90
2022-11-14T19:01:37.447Z,63.43
2022-11-14T19:04:06.018Z,71.00
2022-11-14T19:06:34.695Z,69.73
2022-11-14T19:09:11.385Z,66.90
2022-11-14T19:11:57.003Z,64.80
2022-11-14T19:14:23.808Z,59.67
2022-11-14T19:16:50.417Z,63.07
2022-11-14T19:19:17.072Z,74.67
2022-11-14T19:21:43.917Z,73.37
2022-11-14T19:24:10.552Z,68.17
2022-11-14T19:26:37.202Z,68.63
2022-11-14T19:29:05.596Z,88.77
2022-11-14T19:31:33.243Z,58.50
2022-11-14T19:34:00.350Z,65.93
2022-11-14T19:36:57.844Z,62.60
2022-11-14T19:39:13.870Z,66.93
2022-11-14T19:41:40.834Z,65.83
2022-11-14T19:44:07.498Z,66.00
2022-11-14T19:46:36.290Z,71.37
2022-11-14T19:49:03.927Z,61.20
2022-11-14T19:51:31.068Z,74.23
2022-11-14T19:53:58.573Z,79.13
2022-11-14T19:56:29.040Z,76.57
2022-11-14T19:58:56.745Z,80.17
2022-11-14T20:01:26.229Z,76.43
2022-11-14T20:04:01.208Z,77.20
2022-11-14T20:06:34.991Z,66.97
2022-11-14T20:09:04.536Z,76.57
2022-11-14T20:11:31.328Z,77.27
2022-11-14T20:13:58.575Z,74.20
2022-11-14T20:16:30.443Z,78.40
2022-11-14T20:19:00.017Z,71.63
2022-11-14T20:21:28.859Z,81.43
2022-11-14T20:23:55.626Z,72.30
2022-11-14T20:26:22.469Z,80.00
2022-11-14T20:28:52.077Z,74.90
2022-11-14T20:31:24.642Z,75.13
2022-11-14T20:33:52.906Z,75.43
2022-11-14T20:36:21.868Z,69.17
2022-11-14T20:38:49.048Z,77.00
2022-11-14T20:41:16.086Z,75.40
2022-11-14T20:43:43.239Z,75.77
2022-11-14T20:46:14.997Z,79.53
2022-11-14T20:48:41.879Z,84.07
2022-11-14T20:51:25.648Z,77.10
2022-11-14T20:53:54.112Z,84.60
2022-11-14T20:56:21.745Z,86.53
2022-11-14T20:58:51.695Z,85.57
2022-11-14T21:01:18.724Z,84.27
2022-11-14T21:03:45.645Z,76.10
2022-11-14T21:06:13.183Z,77.80
2022-11-14T21:08:40.080Z,79.67
2022-11-14T21:11:12.286Z,74.00
2022-11-14T21:13:58.729Z,73.97
2022-11-14T21:16:34.544Z,79.10
2022-11-14T21:19:03.362Z,73.47
2022-11-14T21:21:30.637Z,85.57
2022-11-14T21:23:57.550Z,81.70
2022-11-14T21:26:26.526Z,79.27
2022-11-14T21:28:55.432Z,74.63
2022-11-14T21:31:33.650Z,81.97
2022-11-14T21:34:02.250Z,82.13
2022-11-14T21:36:44.291Z,73.97
2022-11-14T21:39:14.610Z,71.03
2022-11-14T21:41:42.068Z,76.10
2022-11-14T21:44:13.778Z,76.10
2022-11-14T21:46:41.245Z,76.87
2022-11-14T21:49:08.356Z,79.80
2022-11-14T21:51:35.226Z,81.90
2022-11-14T21:54:02.881Z,74.50
2022-11-14T21:56:31.159Z,80.00
2022-11-14T21:59:21.407Z,74.43
2022-11-14T22:02:08.283Z,73.50
2022-11-14T22:04:35.525Z,67.90
2022-11-14T22:07:04.221Z,75.90
2022-11-14T22:09:31.180Z,76.13
2022-11-14T22:11:58.028Z,78.67
2022-11-14T22:14:24.981Z,78.37
2022-11-14T22:16:51.798Z,76.23
2022-11-14T22:19:19.031Z,70.67
2022-11-14T22:21:45.758Z,68.03
2022-11-14T22:24:12.414Z,68.83
2022-11-14T22:26:40.420Z,71.03
2022-11-14T22:29:07.841Z,72.60
2022-11-14T22:31:34.571Z,76.70
2022-11-14T22:34:01.283Z,66.93
2022-11-14T22:36:29.025Z,74.67
2022-11-14T22:38:56.620Z,75.07
2022-11-14T22:41:32.953Z,76.50
2022-11-14T22:44:00.725Z,70.93
2022-11-14T22:46:27.932Z,74.05
2022-11-14T22:48:54.865Z,72.77
2022-11-14T22:51:23.791Z,66.73
2022-11-14T22:53:52.212Z,73.10
2022-11-14T22:56:20.592Z,69.57
2022-11-14T22:58:47.293Z,65.87
2022-11-14T23:01:32.174Z,70.87
2022-11-14T23:04:04.153Z,65.10
2022-11-14T23:06:32.995Z,71.30
2022-11-14T23:09:00.670Z,73.10
2022-11-14T23:11:29.951Z,77.27
2022-11-14T23:13:57.651Z,70.23
2022-11-14T23:16:26.651Z,69.80
2022-11-14T23:18:55.323Z,62.30
2022-11-14T23:21:29.962Z,70.30
2022-11-14T23:24:01.047Z,66.47
2022-11-14T23:26:29.374Z,70.07
2022-11-14T23:28:57.512Z,64.27
2022-11-14T23:31:25.095Z,66.67
2022-11-14T23:33:53.992Z,59.37
2022-11-14T23:36:20.649Z,62.43
2022-11-14T23:38:47.313Z,62.67
2022-11-14T23:41:19.148Z,63.20
2022-11-14T23:43:46.391Z,67.17
2022-11-14T23:46:13.975Z,67.60
2022-11-14T23:48:41.002Z,63.83
2022-11-14T23:51:07.802Z,63.10
2022-11-14T23:53:34.605Z,63.07
2022-11-14T23:56:02.034Z,64.37
2022-11-14T23:58:29.945Z,60.20
